Terminal Aerodrome Forecast
Issued by NWS Central Illinois

Home | Current Version | Previous Version | Text Only | Print | Product List | Glossary On
Versions: 1 2 3 4 5 6 7 8 9 10 11 12 13 14 15 16 17 18 19
215
FTUS43 KILX 302328
TAFPIA
TAF
KPIA 302328Z 3100/3124 VRB04KT P6SM SCT070 SCT200
     FM310300 VRB03KT P6SM SCT120 BKN250
     FM311700 17009KT P6SM VCTS SCT050CB BKN100=

USA.gov is the U.S. government's official web portal to all federal, state and local government web resources and services.